Terminal Aerodrome Forecast
Issued by NWS

Home | Current Version | Previous Version | Text Only | Print | Product List | Glossary On
Versions: 1 2 3 4 5 6 7 8 9 10 11 12 13 14 15 16 17
000
FTUS41 KBGM 191144
TAFELM
TAF
KELM 191144Z 1912/2012 00000KT P6SM SKC
      TEMPO 1912/1913 3SM BR
     FM191600 23010G15KT P6SM SKC
     FM200000 25005KT P6SM SCT070
     FM200500 00000KT P6SM SKC
      TEMPO 2009/2012 3SM BR=

USA.gov is the U.S. government's official web portal to all federal, state and local government web resources and services.